Time,TemperatureF,DewpointF,PressureIn,WindDirection,WindDirectionDegrees,WindSpeedMPH,WindSpeedGustMPH,Humidity,HourlyPrecipIn,Conditions,Clouds,dailyrainin,SolarRadiationWatts/m^2,SoftwareType,DateUTC
2013-08-13 00:42:00,66.0,38.0,-100.00,WSW,255,8.0,14.0,36,0.00,,,0.00,0.000000,,2013-08-13 06:42:00,
2013-08-13 00:52:00,66.0,38.0,-100.00,WSW,255,8.0,14.0,36,0.00,,,0.00,0.000000,,2013-08-13 06:52:00,
2013-08-13 01:01:00,66.0,38.0,-100.00,WSW,255,8.0,14.0,36,0.00,,,0.00,0.000000,,2013-08-13 07:01:00,
2013-08-13 01:42:00,66.0,39.0,-100.00,SW,229,4.0,23.0,37,0.00,,,0.00,0.000000,,2013-08-13 07:42:00,
2013-08-13 01:52:00,66.0,39.0,-100.00,SW,229,4.0,23.0,37,0.00,,,0.00,0.000000,,2013-08-13 07:52:00,
2013-08-13 02:01:00,66.0,39.0,-100.00,SW,229,4.0,23.0,37,0.00,,,0.00,0.000000,,2013-08-13 08:01:00,
2013-08-13 02:42:00,65.0,38.0,-100.00,SSE,152,7.0,11.0,37,-99.99,,,0.00,0.000000,,2013-08-13 08:42:00,
2013-08-13 03:43:00,64.0,40.0,-100.00,West,265,11.0,15.0,42,-99.99,,,0.00,0.000000,,2013-08-13 09:43:00,
2013-08-13 03:53:00,64.0,40.0,-100.00,West,265,11.0,15.0,42,-99.99,,,0.00,0.000000,,2013-08-13 09:53:00,
2013-08-13 04:03:00,64.0,40.0,-100.00,West,265,11.0,15.0,42,-99.99,,,0.00,0.000000,,2013-08-13 10:03:00,
2013-08-13 04:43:00,63.0,40.0,-100.00,South,171,3.0,17.0,43,-99.99,,,0.00,0.000000,,2013-08-13 10:43:00,
2013-08-13 05:42:00,62.0,39.0,-100.00,East,101,3.0,6.0,43,-99.99,,,0.00,0.000000,,2013-08-13 11:42:00,
2013-08-13 05:52:00,62.0,39.0,-100.00,East,101,3.0,6.0,43,-99.99,,,0.00,0.000000,,2013-08-13 11:52:00,
2013-08-13 06:01:00,62.0,39.0,-100.00,East,101,3.0,6.0,43,-99.99,,,0.00,0.000000,,2013-08-13 12:01:00,
2013-08-13 06:42:00,61.0,38.0,-100.00,WSW,254,7.0,9.0,43,-99.99,,,0.00,0.000000,,2013-08-13 12:42:00,
2013-08-13 06:52:00,61.0,38.0,-100.00,WSW,254,7.0,9.0,43,-99.99,,,0.00,0.000000,,2013-08-13 12:52:00,
2013-08-13 07:01:00,61.0,38.0,-100.00,WSW,254,7.0,9.0,43,-99.99,,,0.00,0.000000,,2013-08-13 13:01:00,
2013-08-13 07:42:00,61.0,41.0,-100.00,West,263,3.0,8.0,47,-99.99,,,0.00,10.000000,,2013-08-13 13:42:00,
2013-08-13 08:42:00,59.0,37.0,-100.00,WSW,253,7.0,11.0,44,-99.99,,,0.00,94.000000,,2013-08-13 14:42:00,
2013-08-13 08:52:00,59.0,37.0,-100.00,WSW,253,7.0,11.0,44,-99.99,,,0.00,94.000000,,2013-08-13 14:52:00,
2013-08-13 09:02:00,59.0,37.0,-100.00,WSW,253,7.0,11.0,44,-99.99,,,0.00,94.000000,,2013-08-13 15:02:00,
2013-08-13 09:44:00,62.0,46.0,-100.00,West,261,12.0,21.0,55,0.00,,,0.00,135.000000,,2013-08-13 15:44:00,
2013-08-13 09:54:00,62.0,46.0,-100.00,West,261,12.0,21.0,55,0.00,,,0.00,135.000000,,2013-08-13 15:54:00,
2013-08-13 10:03:00,62.0,46.0,-100.00,West,261,12.0,21.0,55,0.00,,,0.00,135.000000,,2013-08-13 16:03:00,
2013-08-13 10:45:00,65.0,48.0,-100.00,East,96,6.0,14.0,54,-99.99,,,0.00,305.000000,,2013-08-13 16:45:00,
2013-08-13 10:54:00,65.0,48.0,-100.00,East,96,6.0,14.0,54,-99.99,,,0.00,305.000000,,2013-08-13 16:54:00,
2013-08-13 11:05:00,65.0,48.0,-100.00,East,96,6.0,14.0,54,-99.99,,,0.00,305.000000,,2013-08-13 17:05:00,
2013-08-13 11:46:00,-999.0,-99.9,-100.00,ESE,103,5.0,11.0,-999,0.00,,,0.00,565.000000,,2013-08-13 17:46:00,
2013-08-13 11:56:00,68.0,41.0,-100.00,ESE,103,5.0,11.0,37,0.00,,,0.00,565.000000,,2013-08-13 17:56:00,
2013-08-13 12:05:00,68.0,41.0,-100.00,ESE,103,5.0,11.0,37,0.00,,,0.00,565.000000,,2013-08-13 18:05:00,
2013-08-13 12:44:00,73.0,44.0,-100.00,NNW,330,5.0,9.0,36,0.00,,,0.00,803.000000,,2013-08-13 18:44:00,
2013-08-13 12:56:00,73.0,44.0,-100.00,NNW,330,5.0,9.0,36,0.00,,,0.00,803.000000,,2013-08-13 18:56:00,
2013-08-13 13:04:00,73.0,44.0,-100.00,NNW,330,5.0,9.0,36,0.00,,,0.00,803.000000,,2013-08-13 19:04:00,
2013-08-13 13:44:00,77.0,45.0,-100.00,NNW,339,5.0,10.0,32,0.00,,,0.00,890.000000,,2013-08-13 19:44:00,
2013-08-13 13:55:00,77.0,45.0,-100.00,NNW,339,5.0,10.0,32,0.00,,,0.00,890.000000,,2013-08-13 19:55:00,
2013-08-13 14:04:00,77.0,45.0,-100.00,NNW,339,5.0,10.0,32,0.00,,,0.00,890.000000,,2013-08-13 20:04:00,
2013-08-13 14:45:00,76.0,41.0,-100.00,West,275,9.0,13.0,29,0.00,,,0.00,791.000000,,2013-08-13 20:45:00,
2013-08-13 14:53:00,76.0,41.0,-100.00,West,275,9.0,13.0,29,0.00,,,0.00,791.000000,,2013-08-13 20:53:00,
2013-08-13 15:01:00,76.0,41.0,-100.00,West,275,9.0,13.0,29,0.00,,,0.00,791.000000,,2013-08-13 21:01:00,
2013-08-13 15:46:00,81.0,37.0,-100.00,WNW,299,14.0,23.0,21,0.00,,,0.00,818.000000,,2013-08-13 21:46:00,
2013-08-13 15:54:00,81.0,37.0,-100.00,WNW,299,14.0,23.0,21,0.00,,,0.00,818.000000,,2013-08-13 21:54:00,
2013-08-13 16:03:00,81.0,37.0,-100.00,WNW,299,14.0,23.0,21,0.00,,,0.00,818.000000,,2013-08-13 22:03:00,
2013-08-13 16:50:00,79.0,39.0,-100.00,NNW,330,12.0,19.0,24,0.00,,,0.00,720.000000,,2013-08-13 22:50:00,
2013-08-13 16:56:00,79.0,39.0,-100.00,NNW,330,12.0,19.0,24,0.00,,,0.00,720.000000,,2013-08-13 22:56:00,
2013-08-13 17:03:00,79.0,39.0,-100.00,NNW,330,12.0,19.0,24,0.00,,,0.00,720.000000,,2013-08-13 23:03:00,
2013-08-13 17:47:00,74.0,41.0,-100.00,NW,322,12.0,21.0,31,0.00,,,-99.99,273.000000,,2013-08-13 23:47:00,
2013-08-13 17:57:00,74.0,41.0,-100.00,NW,322,12.0,21.0,31,0.00,,,-99.99,273.000000,,2013-08-13 23:57:00,
2013-08-13 18:03:00,74.0,41.0,-100.00,NW,322,12.0,21.0,31,0.00,,,-99.99,273.000000,,2013-08-14 00:03:00,
2013-08-13 18:42:00,75.0,31.0,-100.00,West,267,9.0,27.0,20,0.00,,,0.00,306.000000,,2013-08-14 00:42:00,
2013-08-13 18:52:00,75.0,31.0,-100.00,West,267,9.0,27.0,20,0.00,,,0.00,306.000000,,2013-08-14 00:52:00,
2013-08-13 19:01:00,75.0,31.0,-100.00,West,267,9.0,27.0,20,0.00,,,0.00,306.000000,,2013-08-14 01:01:00,
2013-08-13 21:43:00,69.0,35.0,-100.00,WSW,239,3.0,7.0,28,0.00,,,0.00,17.000000,,2013-08-14 03:43:00,
2013-08-13 21:53:00,69.0,35.0,-100.00,WSW,239,3.0,7.0,28,0.00,,,0.00,17.000000,,2013-08-14 03:53:00,
2013-08-13 22:03:00,69.0,35.0,-100.00,WSW,239,3.0,7.0,28,0.00,,,0.00,17.000000,,2013-08-14 04:03:00,
2013-08-13 23:42:00,66.0,34.0,-100.00,SE,138,4.0,6.0,30,-99.99,,,0.00,0.000000,,2013-08-14 05:42:00,
2013-08-13 23:52:00,66.0,34.0,-100.00,SE,138,4.0,6.0,30,-99.99,,,0.00,0.000000,,2013-08-14 05:52:00,